createdAt,value
2022-09-07T00:00:00.253Z,22.80
2022-09-07T00:03:07.972Z,22.70
2022-09-07T00:06:15.454Z,22.70
2022-09-07T00:09:20.673Z,22.70
2022-09-07T00:12:25.607Z,22.70
2022-09-07T00:15:31.220Z,22.70
2022-09-07T00:18:42.482Z,22.60
2022-09-07T00:21:50.715Z,22.60
2022-09-07T00:24:55.727Z,22.60
2022-09-07T00:28:00.634Z,22.60
2022-09-07T00:31:06.044Z,22.50
2022-09-07T00:34:13.641Z,22.40
2022-09-07T00:37:18.567Z,22.40
2022-09-07T00:40:23.498Z,22.30
2022-09-07T00:43:37.349Z,22.20
2022-09-07T00:46:43.471Z,22.10
2022-09-07T00:49:55.346Z,22.10
2022-09-07T00:53:04.764Z,22.00
2022-09-07T00:56:10.490Z,21.90
2022-09-07T00:59:18.875Z,21.90
2022-09-07T01:02:24.391Z,21.80
2022-09-07T01:05:35.560Z,21.80
2022-09-07T01:08:41.589Z,21.70
2022-09-07T01:11:51.067Z,21.70
2022-09-07T01:14:57.226Z,21.60
2022-09-07T01:18:09.886Z,21.60
2022-09-07T01:21:45.647Z,21.60
2022-09-07T01:25:04.942Z,21.50
2022-09-07T01:28:18.595Z,21.40
2022-09-07T01:31:28.606Z,21.40
2022-09-07T01:34:34.667Z,21.40
2022-09-07T01:37:45.826Z,21.40
2022-09-07T01:40:56.747Z,21.30
2022-09-07T01:44:08.465Z,21.30
2022-09-07T01:47:18.171Z,21.20
2022-09-07T01:50:26.362Z,21.20
2022-09-07T01:53:36.697Z,21.20
2022-09-07T01:56:45.338Z,21.10
2022-09-07T02:00:00.258Z,21.10
2022-09-07T02:03:09.903Z,21.10
2022-09-07T02:06:18.403Z,21.10
2022-09-07T02:09:28.943Z,21.00
2022-09-07T02:12:37.702Z,21.00
2022-09-07T02:15:53.557Z,21.00
2022-09-07T02:19:01.649Z,20.90
2022-09-07T02:22:11.442Z,20.90
2022-09-07T02:25:22.222Z,20.80
2022-09-07T02:28:31.118Z,20.80
2022-09-07T02:31:38.990Z,20.80
2022-09-07T02:34:44.004Z,20.80
2022-09-07T02:37:49.985Z,20.80
2022-09-07T02:40:56.068Z,20.70
2022-09-07T02:44:01.618Z,20.70
2022-09-07T02:47:23.181Z,20.70
2022-09-07T02:50:50.247Z,20.70
2022-09-07T02:54:20.871Z,20.60
2022-09-07T02:57:35.140Z,20.60
2022-09-07T03:00:43.197Z,20.60
2022-09-07T03:03:59.002Z,20.60
2022-09-07T03:07:11.445Z,20.60
2022-09-07T03:10:18.112Z,20.60
2022-09-07T03:13:24.526Z,20.50
2022-09-07T03:16:29.492Z,20.50
2022-09-07T03:19:37.074Z,20.50
2022-09-07T03:22:42.378Z,20.50
2022-09-07T03:25:47.370Z,20.50
2022-09-07T03:28:52.289Z,20.50
2022-09-07T03:31:57.326Z,20.40
2022-09-07T03:35:05.706Z,20.40
2022-09-07T03:38:10.713Z,20.40
2022-09-07T03:41:15.660Z,20.30
2022-09-07T03:44:20.652Z,20.30
2022-09-07T03:47:25.646Z,20.30
2022-09-07T03:50:33.186Z,20.30
2022-09-07T03:53:40.013Z,20.20
2022-09-07T03:56:44.915Z,20.20
2022-09-07T03:59:49.953Z,20.20
2022-09-07T04:02:54.928Z,20.10
2022-09-07T04:06:04.463Z,20.10
2022-09-07T04:09:14.204Z,20.10
2022-09-07T04:12:19.127Z,20.10
2022-09-07T04:15:24.051Z,20.00
2022-09-07T04:18:29.313Z,20.00
2022-09-07T04:21:37.321Z,20.00
2022-09-07T04:24:42.276Z,19.90
2022-09-07T04:27:47.711Z,19.90
2022-09-07T04:30:52.725Z,19.90
2022-09-07T04:33:58.386Z,19.80
2022-09-07T04:37:06.935Z,19.80
2022-09-07T04:40:13.167Z,19.80
2022-09-07T04:43:18.123Z,19.70
2022-09-07T04:46:24.626Z,19.70
2022-09-07T04:49:29.578Z,19.70
2022-09-07T04:52:37.106Z,19.70
2022-09-07T04:55:42.062Z,19.60
2022-09-07T04:58:47.654Z,19.60
2022-09-07T05:01:52.653Z,19.60
2022-09-07T05:05:02.481Z,19.60
2022-09-07T05:08:10.340Z,19.50
2022-09-07T05:11:16.429Z,19.50
2022-09-07T05:14:21.402Z,19.40
2022-09-07T05:17:26.510Z,19.40
2022-09-07T05:20:31.398Z,19.40
2022-09-07T05:23:38.910Z,19.30
2022-09-07T05:26:43.835Z,19.30
2022-09-07T05:30:05.096Z,19.30
2022-09-07T05:33:11.139Z,19.30
2022-09-07T05:36:16.133Z,19.30
2022-09-07T05:39:23.807Z,19.30
2022-09-07T05:42:28.740Z,19.20
2022-09-07T05:45:34.321Z,19.20
2022-09-07T05:48:39.354Z,19.20
2022-09-07T05:51:44.262Z,19.20
2022-09-07T05:54:54.361Z,19.20
2022-09-07T05:58:01.505Z,19.20
2022-09-07T06:01:08.976Z,19.20
2022-09-07T06:04:13.935Z,19.20
2022-09-07T06:07:22.170Z,19.20
2022-09-07T06:10:46.640Z,19.20
2022-09-07T06:13:52.053Z,19.20
2022-09-07T06:16:57.027Z,19.20
2022-09-07T06:20:02.014Z,19.20
2022-09-07T06:23:07.327Z,19.20
2022-09-07T06:26:16.414Z,19.20
2022-09-07T06:29:21.445Z,19.20
2022-09-07T06:35:57.025Z,19.20
2022-09-07T06:39:02.941Z,19.30
2022-09-07T06:42:10.601Z,19.30
2022-09-07T06:45:21.121Z,19.30
2022-09-07T06:48:26.307Z,19.40
2022-09-07T06:51:32.270Z,19.40
2022-09-07T06:58:04.686Z,19.50
2022-09-07T07:01:11.689Z,19.50
2022-09-07T07:04:17.031Z,19.50
2022-09-07T07:07:21.946Z,19.60
2022-09-07T07:10:26.932Z,19.60
2022-09-07T07:13:34.649Z,19.60
2022-09-07T07:16:39.693Z,19.70
2022-09-07T07:19:44.653Z,19.70
2022-09-07T07:22:52.957Z,19.70
2022-09-07T07:25:57.877Z,19.70
2022-09-07T07:29:05.446Z,19.70
2022-09-07T07:32:10.421Z,19.80
2022-09-07T07:35:16.115Z,19.80
2022-09-07T07:41:54.426Z,19.80
2022-09-07T07:48:29.297Z,19.90
2022-09-07T07:52:49.914Z,20.00
2022-09-07T07:54:59.482Z,20.00
2022-09-07T07:58:04.384Z,20.00
2022-09-07T08:01:14.930Z,20.10
2022-09-07T08:04:19.966Z,20.20
2022-09-07T08:07:24.917Z,20.20
2022-09-07T08:10:30.290Z,20.30
2022-09-07T08:13:35.417Z,20.40
2022-09-07T08:16:45.493Z,20.40
2022-09-07T08:19:51.098Z,20.50
2022-09-07T08:22:56.062Z,20.60
2022-09-07T08:26:01.546Z,20.70
2022-09-07T08:29:06.629Z,20.70
2022-09-07T08:32:14.288Z,20.80
2022-09-07T08:35:19.963Z,20.80
2022-09-07T08:38:25.089Z,20.90
2022-09-07T08:42:00.373Z,21.00
2022-09-07T08:45:08.921Z,21.00
2022-09-07T08:48:21.110Z,21.10
2022-09-07T08:51:35.609Z,21.20
2022-09-07T08:54:41.769Z,21.30
2022-09-07T08:57:53.373Z,21.40
2022-09-07T09:04:28.980Z,21.50
2022-09-07T09:07:40.865Z,21.60
2022-09-07T09:10:56.558Z,21.60
2022-09-07T09:14:07.418Z,21.70
2022-09-07T09:17:18.690Z,21.80
2022-09-07T09:20:33.577Z,21.80
2022-09-07T09:23:42.828Z,21.90
2022-09-07T09:26:53.246Z,21.90
2022-09-07T09:29:58.150Z,22.00
2022-09-07T09:33:18.082Z,22.00
2022-09-07T09:36:36.814Z,22.10
2022-09-07T09:39:44.412Z,22.10
2022-09-07T09:42:50.747Z,22.10
2022-09-07T09:46:13.950Z,22.20
2022-09-07T09:49:22.773Z,22.20
2022-09-07T09:52:38.159Z,22.30
2022-09-07T09:55:54.870Z,22.30
2022-09-07T10:06:08.861Z,22.40
2022-09-07T10:09:20.922Z,22.50
2022-09-07T10:12:32.121Z,22.50
2022-09-07T10:15:40.967Z,22.60
2022-09-07T10:18:58.741Z,22.60
2022-09-07T10:22:04.937Z,22.70
2022-09-07T10:25:32.026Z,22.80
2022-09-07T10:32:19.549Z,23.00
2022-09-07T10:35:29.701Z,23.10
2022-09-07T10:38:42.569Z,23.20
2022-09-07T10:41:57.297Z,23.40
2022-09-07T10:45:12.679Z,23.50
2022-09-07T10:48:22.542Z,23.60
2022-09-07T10:51:36.973Z,23.70
2022-09-07T10:54:48.554Z,23.90
2022-09-07T10:58:09.333Z,24.00
2022-09-07T11:01:21.812Z,24.20
2022-09-07T11:04:39.907Z,24.30
2022-09-07T11:07:59.798Z,24.50
2022-09-07T11:11:12.300Z,24.80
2022-09-07T11:14:25.005Z,25.00
2022-09-07T11:17:32.775Z,25.20
2022-09-07T11:20:42.099Z,25.30
2022-09-07T11:23:52.842Z,25.50
2022-09-07T11:27:03.142Z,25.50
2022-09-07T11:30:22.480Z,25.60
2022-09-07T11:33:31.388Z,25.70
2022-09-07T11:36:41.782Z,25.70
2022-09-07T11:39:50.964Z,25.70
2022-09-07T11:42:59.831Z,25.70
2022-09-07T11:46:13.017Z,25.70
2022-09-07T11:49:22.973Z,25.70
2022-09-07T11:52:36.657Z,25.70
2022-09-07T11:55:46.979Z,25.80
2022-09-07T11:59:16.491Z,25.90
2022-09-07T12:02:59.281Z,25.90
2022-09-07T12:06:42.725Z,25.90
2022-09-07T12:10:15.772Z,26.00
2022-09-07T12:13:46.426Z,26.00
2022-09-07T12:17:29.206Z,26.00
2022-09-07T12:20:46.681Z,26.00
2022-09-07T12:23:51.745Z,26.00
2022-09-07T12:26:58.668Z,26.10
2022-09-07T12:30:33.813Z,26.10
2022-09-07T12:33:40.354Z,26.20
2022-09-07T12:36:52.986Z,26.20
2022-09-07T12:40:27.927Z,26.30
2022-09-07T12:43:38.773Z,26.40
2022-09-07T12:47:02.644Z,26.50
2022-09-07T12:50:24.210Z,26.60
2022-09-07T12:53:42.179Z,26.70
2022-09-07T12:57:29.065Z,26.80
2022-09-07T13:00:20.678Z,26.80
2022-09-07T13:03:55.814Z,26.90
2022-09-07T13:07:27.619Z,26.90
2022-09-07T13:10:37.593Z,27.00
2022-09-07T13:17:42.428Z,27.10
2022-09-07T13:20:48.513Z,27.20
2022-09-07T13:24:48.992Z,27.20
2022-09-07T13:27:59.638Z,27.20
2022-09-07T13:31:27.486Z,27.20
2022-09-07T13:34:42.779Z,27.20
2022-09-07T13:37:53.741Z,27.20
2022-09-07T13:41:06.159Z,27.20
2022-09-07T13:44:25.820Z,27.10
2022-09-07T13:47:48.053Z,27.10
2022-09-07T13:51:01.748Z,27.00
2022-09-07T13:54:13.439Z,26.90
2022-09-07T13:57:28.354Z,26.80
2022-09-07T14:00:36.556Z,26.70
2022-09-07T14:03:50.437Z,26.70
2022-09-07T14:07:06.674Z,26.60
2022-09-07T14:10:19.386Z,26.50
2022-09-07T14:13:24.279Z,26.40
2022-09-07T14:16:31.848Z,26.30
2022-09-07T14:19:40.979Z,26.20
2022-09-07T14:22:52.061Z,26.10
2022-09-07T14:26:18.062Z,26.00
2022-09-07T14:29:30.094Z,25.80
2022-09-07T14:32:37.632Z,25.70
2022-09-07T14:35:44.090Z,25.60
2022-09-07T14:39:05.413Z,25.60
2022-09-07T14:42:13.462Z,25.50
2022-09-07T14:45:32.563Z,25.40
2022-09-07T14:48:41.954Z,25.30
2022-09-07T14:51:48.483Z,25.30
2022-09-07T14:54:54.937Z,25.20
2022-09-07T14:58:25.541Z,25.20
2022-09-07T15:01:38.290Z,25.20
2022-09-07T15:04:46.465Z,25.20
2022-09-07T15:07:53.365Z,25.20
2022-09-07T15:14:29.814Z,25.20
2022-09-07T15:17:43.255Z,25.30
2022-09-07T15:20:51.286Z,25.30
2022-09-07T15:23:58.625Z,25.20
2022-09-07T15:27:03.979Z,25.20
2022-09-07T15:30:12.321Z,25.20
2022-09-07T15:33:17.237Z,25.20
2022-09-07T15:36:24.874Z,25.20
2022-09-07T15:39:31.366Z,25.10
2022-09-07T15:46:03.518Z,25.10
2022-09-07T15:49:08.726Z,25.00
2022-09-07T15:52:16.189Z,25.00
2022-09-07T15:55:21.093Z,25.00
2022-09-07T15:58:26.041Z,24.90
2022-09-07T16:04:55.877Z,24.90
2022-09-07T16:11:29.962Z,24.80
2022-09-07T16:14:35.264Z,24.80
2022-09-07T16:17:47.228Z,24.80
2022-09-07T16:20:53.249Z,24.70
2022-09-07T16:24:00.830Z,24.70
2022-09-07T16:27:06.230Z,24.70
2022-09-07T16:30:13.495Z,24.60
2022-09-07T16:33:18.494Z,24.60
2022-09-07T16:36:24.557Z,24.60
2022-09-07T16:39:32.166Z,24.60
2022-09-07T16:42:37.701Z,24.60
2022-09-07T16:49:08.604Z,24.50
2022-09-07T16:52:13.466Z,24.50
2022-09-07T16:55:21.083Z,24.40
2022-09-07T16:58:41.242Z,24.40
2022-09-07T17:01:46.169Z,24.40
2022-09-07T17:04:51.872Z,24.30
2022-09-07T17:07:57.893Z,24.30
2022-09-07T17:11:07.216Z,24.30
2022-09-07T17:14:13.478Z,24.30
2022-09-07T17:17:20.105Z,24.30
2022-09-07T17:20:25.288Z,24.20
2022-09-07T17:23:30.682Z,24.20
2022-09-07T17:26:38.522Z,24.20
2022-09-07T17:29:43.388Z,24.20
2022-09-07T17:32:48.298Z,24.10
2022-09-07T17:35:55.414Z,24.00
2022-09-07T17:39:18.028Z,24.00
2022-09-07T17:43:38.753Z,24.00
2022-09-07T17:45:53.209Z,23.90
2022-09-07T17:49:00.883Z,23.90
2022-09-07T17:52:06.394Z,23.90
2022-09-07T17:55:11.473Z,23.80
2022-09-07T17:58:18.914Z,23.80
2022-09-07T18:01:24.823Z,23.70
2022-09-07T18:04:29.944Z,23.60
2022-09-07T18:07:35.150Z,23.60
2022-09-07T18:14:08.330Z,23.50
2022-09-07T18:17:13.300Z,23.50
2022-09-07T18:20:19.195Z,23.40
2022-09-07T18:23:24.314Z,23.40
2022-09-07T18:26:29.773Z,23.30
2022-09-07T18:29:37.351Z,23.30
2022-09-07T18:32:42.425Z,23.20
2022-09-07T18:35:48.437Z,23.10
2022-09-07T18:38:54.049Z,23.10
2022-09-07T18:41:59.227Z,23.00
2022-09-07T18:48:32.709Z,22.90
2022-09-07T18:55:02.534Z,22.80
2022-09-07T18:58:07.385Z,22.80
2022-09-07T19:01:16.645Z,22.70
2022-09-07T19:04:22.025Z,22.60
2022-09-07T19:07:29.872Z,22.60
2022-09-07T19:10:38.625Z,22.50
2022-09-07T19:13:43.717Z,22.50
2022-09-07T19:16:51.717Z,22.40
2022-09-07T19:19:56.611Z,22.30
2022-09-07T19:23:01.530Z,22.30
2022-09-07T19:26:08.575Z,22.20
2022-09-07T19:29:16.906Z,22.20
2022-09-07T19:32:25.576Z,22.20
2022-09-07T19:35:30.942Z,22.10
2022-09-07T19:38:36.215Z,22.10
2022-09-07T19:41:45.075Z,22.00
2022-09-07T19:44:49.933Z,22.00
2022-09-07T19:47:57.386Z,21.90
2022-09-07T19:51:06.912Z,21.90
2022-09-07T19:54:12.793Z,21.90
2022-09-07T19:57:17.898Z,21.80
2022-09-07T20:00:24.698Z,21.80
2022-09-07T20:03:32.392Z,21.80
2022-09-07T20:06:39.794Z,21.80
2022-09-07T20:09:44.779Z,21.70
2022-09-07T20:12:49.742Z,21.70
2022-09-07T20:15:55.308Z,21.60
2022-09-07T20:19:03.423Z,21.60
2022-09-07T20:22:08.453Z,21.60
2022-09-07T20:25:13.534Z,21.50
2022-09-07T20:28:18.460Z,21.50
2022-09-07T20:31:23.540Z,21.40
2022-09-07T20:34:32.208Z,21.40
2022-09-07T20:37:37.193Z,21.40
2022-09-07T20:40:42.181Z,21.40
2022-09-07T20:43:47.075Z,21.30
2022-09-07T20:46:52.138Z,21.30
2022-09-07T20:49:59.678Z,21.30
2022-09-07T20:53:04.754Z,21.20
2022-09-07T20:56:13.322Z,21.20
2022-09-07T20:59:18.258Z,21.20
2022-09-07T21:02:23.242Z,21.10
2022-09-07T21:05:30.858Z,21.10
2022-09-07T21:08:38.322Z,21.10
2022-09-07T21:11:46.153Z,21.00
2022-09-07T21:14:53.970Z,21.00
2022-09-07T21:17:58.858Z,21.00
2022-09-07T21:21:22.144Z,20.90
2022-09-07T21:24:27.334Z,20.90
2022-09-07T21:27:38.761Z,20.90
2022-09-07T21:30:43.920Z,20.80
2022-09-07T21:33:48.851Z,20.80
2022-09-07T21:36:56.474Z,20.80
2022-09-07T21:40:03.165Z,20.70
2022-09-07T21:43:08.345Z,20.70
2022-09-07T21:46:16.029Z,20.70
2022-09-07T21:49:20.957Z,20.70
2022-09-07T21:52:28.534Z,20.70
2022-09-07T21:55:33.977Z,20.60
2022-09-07T21:58:39.925Z,20.60
2022-09-07T22:01:44.833Z,20.60
2022-09-07T22:04:49.823Z,20.60
2022-09-07T22:07:57.259Z,20.50
2022-09-07T22:11:07.752Z,20.50
2022-09-07T22:14:15.756Z,20.50
2022-09-07T22:17:20.657Z,20.50
2022-09-07T22:20:25.530Z,20.40
2022-09-07T22:23:35.165Z,20.40
2022-09-07T22:26:40.941Z,20.40
2022-09-07T22:29:45.804Z,20.30
2022-09-07T22:32:51.514Z,20.30
2022-09-07T22:35:56.354Z,20.30
2022-09-07T22:39:06.265Z,20.20
2022-09-07T22:42:11.146Z,20.20
2022-09-07T22:45:16.014Z,20.20
2022-09-07T22:48:20.922Z,20.20
2022-09-07T22:51:26.765Z,20.20
2022-09-07T22:54:34.321Z,20.10
2022-09-07T22:57:39.201Z,20.10
2022-09-07T23:00:44.686Z,20.10
2022-09-07T23:03:49.949Z,20.10
2022-09-07T23:06:54.954Z,20.10
2022-09-07T23:10:02.431Z,20.00
2022-09-07T23:13:09.021Z,20.00
2022-09-07T23:16:14.029Z,20.00
2022-09-07T23:19:20.580Z,19.90
2022-09-07T23:22:25.429Z,19.90
2022-09-07T23:25:32.953Z,19.90
2022-09-07T23:28:38.085Z,19.80
2022-09-07T23:31:43.321Z,19.80
2022-09-07T23:34:48.624Z,19.80
2022-09-07T23:37:53.878Z,19.80
2022-09-07T23:41:02.370Z,19.80
2022-09-07T23:44:07.601Z,19.70
2022-09-07T23:47:12.516Z,19.70
2022-09-07T23:50:17.415Z,19.70
2022-09-07T23:53:23.481Z,19.70
2022-09-07T23:56:31.206Z,19.70
2022-09-07T23:59:36.687Z,19.60
